Time;durP1;ratioP1;P1;durP2;ratioP2;P2;SDS_P1;SDS_P2;PMS_P1;PMS_P2;Temp;Humidity;BMP_temperature;BMP_pressure;BME280_temperature;BME280_humidity;BME280_pressure;Samples;Min_cycle;Max_cycle;Signal;HPM_P1;HPM_P2
2024/01/16 00:00:31;;;;;;;4.45;2.30;;;;;;;8.35;49.81;97730.63;4906670;29;20024;-96
2024/01/16 00:02:57;;;;;;;3.67;2.25;;;;;;;8.37;49.41;97731.13;4923256;29;20032;-94
2024/01/16 00:05:23;;;;;;;3.33;2.50;;;;;;;8.41;50.16;97737.53;4906391;29;20031;-94
2024/01/16 00:07:49;;;;;;;4.00;2.60;;;;;;;8.33;49.68;97719.41;4922011;29;20035;-95
2024/01/16 00:10:14;;;;;;;5.10;2.65;;;;;;;8.46;49.18;97732.84;4906872;29;20055;-94
2024/01/16 00:12:41;;;;;;;5.90;2.47;;;;;;;8.47;49.36;97736.34;4922833;29;20028;-95
2024/01/16 00:15:07;;;;;;;3.70;2.25;;;;;;;8.41;49.45;97710.72;4907097;29;20054;-95
2024/01/16 00:17:32;;;;;;;4.50;2.60;;;;;;;8.46;49.61;97727.50;4908528;29;20482;-95
2024/01/16 00:20:00;;;;;;;4.03;2.60;;;;;;;8.52;49.78;97728.19;4923087;29;20036;-95
2024/01/16 00:22:29;;;;;;;3.60;2.47;;;;;;;8.48;50.30;97729.88;4908461;29;20016;-94
2024/01/16 00:24:54;;;;;;;5.07;2.67;;;;;;;8.39;50.97;97719.00;4907153;29;20047;-96
2024/01/16 00:27:20;;;;;;;3.88;2.42;;;;;;;8.39;50.76;97720.91;4906179;29;20034;-95
2024/01/16 00:29:45;;;;;;;3.95;2.67;;;;;;;8.41;50.81;97722.22;4922624;29;20027;-95
2024/01/16 00:32:15;;;;;;;4.32;2.67;;;;;;;8.39;50.72;97713.66;4906750;29;20027;-95
2024/01/16 00:34:42;;;;;;;4.55;2.60;;;;;;;8.46;51.61;97713.28;4906916;29;20094;-96
2024/01/16 00:37:08;;;;;;;3.63;2.38;;;;;;;8.40;51.68;97709.06;4907728;29;20043;-95
2024/01/16 00:39:34;;;;;;;3.55;2.17;;;;;;;8.42;51.39;97715.75;4922417;29;20114;-96
2024/01/16 00:41:59;;;;;;;4.10;2.63;;;;;;;8.36;52.06;97703.50;4924443;29;20155;-96
2024/01/16 00:44:25;;;;;;;4.30;2.70;;;;;;;8.39;52.35;97729.75;4907155;29;20039;-96
2024/01/16 00:46:51;;;;;;;5.18;3.22;;;;;;;8.27;52.64;97707.97;4907860;29;20023;-95
2024/01/16 00:52:38;;;;;;;6.95;2.30;;;;;;;8.29;52.35;97709.25;4938787;29;20079;-94
2024/01/16 00:55:04;;;;;;;4.05;2.50;;;;;;;8.23;52.27;97710.41;4907056;29;20161;-95
2024/01/16 00:57:30;;;;;;;4.75;3.15;;;;;;;8.30;51.64;97710.84;4906139;29;20124;-95
2024/01/16 00:59:56;;;;;;;4.90;3.17;;;;;;;8.22;52.52;97695.44;4905943;29;20027;-96
2024/01/16 01:02:21;;;;;;;6.78;2.83;;;;;;;8.23;52.46;97702.38;4922284;29;20024;-96
2024/01/16 01:04:47;;;;;;;4.05;2.60;;;;;;;8.28;52.64;97698.84;4906017;29;20036;-95
2024/01/16 01:07:16;;;;;;;4.95;2.85;;;;;;;8.26;52.42;97717.91;4923382;29;20032;-96
2024/01/16 01:09:42;;;;;;;3.65;2.50;;;;;;;8.16;53.15;97703.88;4922560;29;20063;-95
2024/01/16 01:12:07;;;;;;;5.50;2.85;;;;;;;8.12;53.25;97714.38;4906852;29;20024;-95
2024/01/16 01:14:33;;;;;;;4.38;2.60;;;;;;;8.01;53.72;97703.03;4923570;29;20034;-94
2024/01/16 01:16:59;;;;;;;5.22;2.70;;;;;;;8.07;53.71;97725.16;4923215;29;20031;-94
2024/01/16 01:19:24;;;;;;;6.13;2.55;;;;;;;8.02;53.35;97711.84;4907728;29;20090;-95
2024/01/16 01:21:50;;;;;;;3.92;2.40;;;;;;;8.06;53.11;97724.38;4924044;29;20016;-96
2024/01/16 01:24:16;;;;;;;4.93;2.42;;;;;;;8.08;53.45;97710.69;4922989;29;20095;-95
2024/01/16 01:26:44;;;;;;;3.25;2.25;;;;;;;7.97;53.95;97715.41;4922087;29;20023;-95
2024/01/16 01:29:10;;;;;;;3.85;2.25;;;;;;;7.98;53.46;97716.22;4907271;29;20123;-95
2024/01/16 01:31:36;;;;;;;3.50;2.08;;;;;;;7.88;53.66;97699.19;4910032;29;20451;-96
2024/01/16 01:34:01;;;;;;;4.60;2.60;;;;;;;8.10;53.64;97716.56;4910900;29;20023;-95
2024/01/16 01:36:27;;;;;;;5.47;2.90;;;;;;;7.97;54.07;97714.59;4926877;29;20027;-95
2024/01/16 01:38:53;;;;;;;4.50;2.75;;;;;;;8.08;53.76;97729.44;4911002;29;20401;-94
2024/01/16 01:41:18;;;;;;;3.72;2.50;;;;;;;7.86;54.15;97700.56;4911668;29;20031;-96
2024/01/16 01:43:44;;;;;;;5.05;2.72;;;;;;;8.07;54.11;97736.69;4909596;29;20031;-95
2024/01/16 01:46:12;;;;;;;4.00;2.67;;;;;;;8.06;54.74;97739.66;4911794;29;20083;-95
2024/01/16 01:48:38;;;;;;;6.05;2.88;;;;;;;7.85;54.67;97713.19;4911526;29;20413;-96
2024/01/16 01:51:04;;;;;;;5.60;3.42;;;;;;;8.01;55.13;97737.06;4911252;29;20569;-95
2024/01/16 01:53:30;;;;;;;7.55;3.28;;;;;;;8.00;55.44;97744.31;4910073;29;20091;-96
2024/01/16 01:55:56;;;;;;;5.55;3.58;;;;;;;7.95;55.19;97755.13;4910234;29;20059;-95
2024/01/16 01:58:21;;;;;;;6.82;3.80;;;;;;;7.86;55.70;97744.25;4926758;29;20437;-95
2024/01/16 02:00:47;;;;;;;7.93;4.70;;;;;;;7.92;55.69;97754.88;4911492;29;20091;-95
2024/01/16 02:03:13;;;;;;;10.27;5.22;;;;;;;7.88;56.31;97750.09;4908857;29;20027;-96
2024/01/16 02:05:38;;;;;;;11.13;5.43;;;;;;;8.00;56.41;97775.69;4925633;29;20121;-94
2024/01/16 02:08:05;;;;;;;10.95;5.78;;;;;;;7.90;56.66;97769.38;4926213;29;20482;-96
2024/01/16 02:10:31;;;;;;;10.27;5.63;;;;;;;7.75;56.79;97761.56;4909148;29;20060;-96
2024/01/16 02:12:56;;;;;;;11.65;5.40;;;;;;;7.66;56.60;97771.34;4942552;29;20060;-95
2024/01/16 02:15:23;;;;;;;10.60;6.05;;;;;;;7.61;56.96;97772.19;4910340;29;20031;-95
2024/01/16 02:17:49;;;;;;;11.82;6.57;;;;;;;7.66;57.43;97795.44;4911798;29;20043;-95
2024/01/16 02:20:15;;;;;;;11.23;6.63;;;;;;;7.73;57.73;97828.03;4908864;29;20040;-95
2024/01/16 02:22:44;;;;;;;13.93;6.47;;;;;;;7.64;57.63;97837.78;4925963;29;20027;-96
2024/01/16 02:25:10;;;;;;;11.23;6.75;;;;;;;7.54;58.21;97822.63;4911294;29;20064;-96
2024/01/16 02:27:36;;;;;;;15.60;8.57;;;;;;;7.56;59.01;97849.94;4909540;29;20035;-95
2024/01/16 02:30:01;;;;;;;17.58;9.05;;;;;;;7.61;60.39;97851.75;4925996;29;20047;-95
2024/01/16 02:32:27;;;;;;;16.00;8.90;;;;;;;7.53;61.69;97847.81;4924281;29;20467;-95
2024/01/16 02:34:53;;;;;;;17.00;6.88;;;;;;;7.44;62.21;97846.88;4923874;29;20406;-95
2024/01/16 02:37:18;;;;;;;12.60;7.90;;;;;;;7.46;62.34;97848.16;4925037;29;20036;-95
2024/01/16 02:39:44;;;;;;;18.73;7.65;;;;;;;7.47;63.42;97854.31;4909521;29;20039;-95
2024/01/16 02:42:09;;;;;;;9.80;7.13;;;;;;;7.43;63.91;97877.41;4909225;29;20035;-96
2024/01/16 02:44:35;;;;;;;11.13;6.78;;;;;;;7.45;63.57;97892.09;4926439;29;20054;-95
2024/01/16 02:47:00;;;;;;;9.35;5.55;;;;;;;7.35;63.65;97902.91;4909149;29;20031;-95
2024/01/16 02:49:26;;;;;;;5.65;3.72;;;;;;;7.18;64.04;97899.88;4925339;29;20446;-96
2024/01/16 02:51:51;;;;;;;4.35;2.80;;;;;;;7.34;62.34;97914.69;4924336;29;20374;-95
2024/01/16 02:54:17;;;;;;;4.55;3.03;;;;;;;7.34;61.98;97913.91;4907806;29;20035;-95
2024/01/16 02:56:43;;;;;;;4.25;2.63;;;;;;;7.46;61.20;97941.09;4907935;29;20515;-95
2024/01/16 02:59:09;;;;;;;4.85;3.53;;;;;;;7.35;60.75;97923.56;4907317;29;20028;-94
2024/01/16 03:01:34;;;;;;;7.15;3.90;;;;;;;7.34;60.65;97954.84;4922822;29;20028;-95
2024/01/16 03:04:00;;;;;;;6.65;4.40;;;;;;;7.40;61.26;97966.34;4908586;29;20043;-96
2024/01/16 03:06:25;;;;;;;6.63;3.90;;;;;;;7.20;61.00;97960.09;4908974;29;20032;-95
2024/01/16 03:08:51;;;;;;;7.50;5.00;;;;;;;7.26;61.26;97983.06;4910982;29;20091;-96
2024/01/16 03:11:17;;;;;;;10.40;5.45;;;;;;;7.33;60.94;98011.38;4911862;29;20031;-96
2024/01/16 03:13:43;;;;;;;8.52;5.72;;;;;;;7.17;60.68;98002.66;4929025;29;20458;-96
2024/01/16 03:16:12;;;;;;;10.30;6.50;;;;;;;7.02;61.23;98020.44;4946680;29;20083;-96
2024/01/16 03:18:38;;;;;;;10.23;6.50;;;;;;;7.09;61.36;98046.88;4912313;29;20035;-95
2024/01/16 03:21:05;;;;;;;9.10;6.10;;;;;;;6.78;61.89;98027.56;4944319;29;20038;-96
2024/01/16 03:23:31;;;;;;;10.68;7.20;;;;;;;6.70;62.23;98046.84;4944900;29;20114;-96
2024/01/16 03:25:57;;;;;;;11.75;8.18;;;;;;;6.55;62.80;98063.78;4912540;29;20069;-95
2024/01/16 03:28:22;;;;;;;12.95;8.52;;;;;;;6.33;62.81;98067.63;4916587;29;20043;-96
2024/01/16 03:30:48;;;;;;;14.32;8.48;;;;;;;6.19;63.34;98096.78;4910369;29;20035;-96
2024/01/16 03:33:14;;;;;;;15.63;9.52;;;;;;;6.02;62.76;98109.66;4912477;29;20107;-95
2024/01/16 03:35:39;;;;;;;15.70;10.23;;;;;;;5.91;62.74;98127.50;4913294;29;20027;-95
2024/01/16 03:38:05;;;;;;;18.73;10.20;;;;;;;5.81;61.57;98140.88;4926026;29;20027;-95
2024/01/16 03:40:34;;;;;;;18.52;11.48;;;;;;;5.71;61.25;98138.19;4927741;29;20486;-96
2024/01/16 03:43:03;;;;;;;18.30;11.35;;;;;;;5.33;62.73;98154.44;4913379;29;20489;-95
2024/01/16 03:45:30;;;;;;;23.13;12.15;;;;;;;5.00;63.45;98158.38;4928764;29;20038;-95
2024/01/16 03:47:56;;;;;;;21.08;12.57;;;;;;;5.02;64.31;98188.25;4913416;29;20027;-95
2024/01/16 03:50:21;;;;;;;19.50;12.15;;;;;;;4.78;65.08;98190.56;4912747;29;20457;-95
2024/01/16 03:52:47;;;;;;;24.58;14.38;;;;;;;4.67;65.66;98203.06;4911501;29;20023;-96
2024/01/16 03:55:12;;;;;;;20.15;12.70;;;;;;;4.57;65.13;98185.13;4911211;29;20520;-96
2024/01/16 03:57:38;;;;;;;21.45;13.73;;;;;;;4.70;65.31;98213.19;4925432;29;20019;-94
2024/01/16 04:00:05;;;;;;;20.83;13.00;;;;;;;4.74;65.09;98218.81;4913359;29;20520;-95
2024/01/16 04:02:31;;;;;;;22.85;13.35;;;;;;;4.66;64.69;98223.56;4914807;29;20425;-95
2024/01/16 04:04:57;;;;;;;21.00;13.15;;;;;;;4.66;65.22;98247.56;4928506;29;20066;-95
2024/01/16 04:07:23;;;;;;;22.38;14.02;;;;;;;4.61;64.55;98236.88;4913993;29;20485;-95
2024/01/16 04:09:49;;;;;;;22.70;13.73;;;;;;;4.53;64.62;98226.69;4959198;29;20150;-95
2024/01/16 04:12:15;;;;;;;23.42;13.52;;;;;;;4.74;64.53;98261.47;4929768;29;20059;-95
2024/01/16 04:14:40;;;;;;;22.23;14.10;;;;;;;4.75;65.94;98279.06;4916801;29;20201;-95
2024/01/16 04:17:06;;;;;;;22.23;13.13;;;;;;;4.63;64.85;98272.06;4914169;29;20560;-95
2024/01/16 04:19:33;;;;;;;19.77;13.07;;;;;;;4.73;65.42;98289.19;4916551;29;20050;-96
2024/01/16 04:22:01;;;;;;;21.13;13.05;;;;;;;4.75;65.06;98293.22;4915493;29;20031;-94
2024/01/16 04:24:27;;;;;;;26.88;13.23;;;;;;;4.83;65.16;98303.38;4914404;29;20037;-94
2024/01/16 04:26:53;;;;;;;18.92;11.73;;;;;;;4.75;64.91;98305.72;4911063;29;20027;-95
2024/01/16 04:29:18;;;;;;;19.90;12.07;;;;;;;4.74;64.74;98302.28;4909871;29;20038;-96
2024/01/16 04:31:44;;;;;;;19.50;12.27;;;;;;;4.80;65.18;98319.13;4911043;29;20035;-96
2024/01/16 04:34:10;;;;;;;20.83;13.18;;;;;;;4.88;65.31;98328.47;4926963;29;20523;-95
2024/01/16 04:36:35;;;;;;;24.67;13.70;;;;;;;4.89;65.56;98333.56;4926239;29;20035;-94
2024/01/16 04:39:01;;;;;;;23.70;14.68;;;;;;;4.95;64.92;98347.75;4910087;29;20031;-94
2024/01/16 04:41:26;;;;;;;26.73;14.75;;;;;;;4.98;65.79;98344.56;4927117;29;20468;-96
2024/01/16 04:43:53;;;;;;;24.05;13.77;;;;;;;4.99;65.68;98344.31;4911512;29;20034;-95
2024/01/16 04:46:18;;;;;;;28.13;15.20;;;;;;;4.96;65.62;98352.84;4959631;28;20031;-96
2024/01/16 04:48:44;;;;;;;23.52;14.48;;;;;;;4.90;65.43;98339.69;4910473;29;20027;-95
2024/01/16 04:51:10;;;;;;;26.65;15.35;;;;;;;4.96;65.19;98363.50;4910690;29;20500;-95
2024/01/16 04:53:36;;;;;;;25.42;15.15;;;;;;;4.99;64.61;98356.84;4925961;29;20434;-95
2024/01/16 04:56:02;;;;;;;22.52;13.65;;;;;;;4.91;64.99;98360.00;4910996;29;20047;-95
2024/01/16 04:58:27;;;;;;;21.13;13.90;;;;;;;4.78;65.39;98369.22;4916044;29;20031;-95
2024/01/16 05:00:53;;;;;;;24.83;15.05;;;;;;;4.74;66.24;98362.81;4916403;29;20031;-94
2024/01/16 05:03:22;;;;;;;22.02;13.82;;;;;;;4.93;66.17;98385.34;4918799;29;20039;-95
2024/01/16 05:06:08;;;;;;;23.70;14.55;;;;;;;4.76;66.15;98388.16;4936080;29;20027;-96
2024/01/16 05:08:34;;;;;;;26.33;13.85;;;;;;;4.77;66.17;98381.78;4939365;29;20031;-96
2024/01/16 05:11:00;;;;;;;22.52;13.82;;;;;;;4.82;65.73;98394.34;4918539;29;20106;-96
2024/01/16 05:13:26;;;;;;;20.58;13.05;;;;;;;4.87;65.79;98397.03;4943520;23;20079;-94
2024/01/16 05:15:51;;;;;;;23.17;14.13;;;;;;;4.86;66.15;98417.56;4894446;29;20060;-94
2024/01/16 05:18:17;;;;;;;27.65;14.70;;;;;;;4.76;66.67;98403.34;4900999;29;20043;-94
2024/01/16 05:20:43;;;;;;;25.20;14.80;;;;;;;4.81;65.86;98408.72;4897322;29;20036;-96
2024/01/16 05:25:45;;;;;;;22.60;13.15;;;;;;;4.65;66.87;98407.81;4970844;28;20059;-95
2024/01/16 05:28:11;;;;;;;23.48;12.93;;;;;;;4.45;67.07;98413.75;4920878;29;20035;-95
2024/01/16 05:30:49;;;;;;;17.80;11.55;;;;;;;4.59;67.60;98440.81;4919393;29;20477;-96
2024/01/16 05:33:14;;;;;;;15.50;10.60;;;;;;;4.39;67.45;98430.72;4957254;29;20063;-95
2024/01/16 05:38:17;;;;;;;14.88;9.20;;;;;;;4.33;67.78;98423.75;4987147;28;20433;-95
2024/01/16 05:41:03;;;;;;;15.18;9.98;;;;;;;4.22;68.20;98430.81;4960036;28;20045;-96
2024/01/16 05:43:31;;;;;;;11.50;8.52;;;;;;;4.15;67.40;98441.69;4942599;28;20408;-96
2024/01/16 05:46:05;;;;;;;11.48;7.72;;;;;;;4.16;67.14;98463.78;4949677;28;20085;-96
2024/01/16 05:48:31;;;;;;;9.75;7.50;;;;;;;4.28;68.02;98466.34;4936478;29;20052;-95
2024/01/16 05:50:56;;;;;;;11.88;7.35;;;;;;;4.18;67.21;98472.34;4904583;29;20024;-96
2024/01/16 05:53:25;;;;;;;18.10;13.75;;;;;;;4.15;67.71;98471.00;4905207;29;20095;-95
2024/01/16 05:55:54;;;;;;;12.48;7.28;;;;;;;4.16;68.00;98488.56;4902423;29;20068;-95
2024/01/16 05:58:27;;;;;;;8.30;5.82;;;;;;;4.21;66.51;98462.00;4921271;29;20079;-95
2024/01/16 06:01:04;;;;;;;11.32;7.18;;;;;;;4.40;65.77;98485.63;4914387;29;20036;-94
2024/01/16 06:03:41;;;;;;;12.85;8.00;;;;;;;4.54;64.37;98534.03;4901945;29;20047;-94
2024/01/16 06:06:07;;;;;;;6.95;4.80;;;;;;;4.50;64.29;98520.41;4904750;29;20032;-96
2024/01/16 06:08:33;;;;;;;7.78;4.72;;;;;;;4.53;64.87;98524.44;4896109;29;20060;-96
2024/01/16 06:11:01;;;;;;;6.97;4.68;;;;;;;4.61;64.19;98543.47;4895696;29;20018;-96
2024/01/16 06:13:31;;;;;;;8.20;4.68;;;;;;;4.69;64.80;98562.72;4900281;29;20088;-96
2024/01/16 06:16:03;;;;;;;6.88;4.50;;;;;;;4.59;63.40;98547.44;4898647;29;20479;-96
2024/01/16 06:18:28;;;;;;;7.15;4.78;;;;;;;4.61;63.48;98583.47;4914767;28;20036;-96
2024/01/16 06:20:55;;;;;;;5.65;4.22;;;;;;;4.68;61.82;98567.25;4939102;28;20520;-92
2024/01/16 06:23:20;;;;;;;9.68;5.95;;;;;;;4.65;62.43;98549.09;4927710;28;20058;-93
2024/01/16 06:28:47;;;;;;;;;;;;;;;;;;;;;
2024/01/16 06:31:14;;;;;;;;;;;;;;;4.93;61.07;98595.28;4924870;29;20138;-94
2024/01/16 06:33:40;;;;;;;6.88;4.43;;;;;;;4.75;61.08;98575.88;4950331;29;19914;-95
2024/01/16 06:36:06;;;;;;;11.10;4.28;;;;;;;5.01;60.77;98614.28;4931559;29;20134;-93
2024/01/16 06:38:33;;;;;;;6.75;4.05;;;;;;;5.00;59.85;98603.88;4907653;29;20023;-95
2024/01/16 06:40:59;;;;;;;7.68;4.43;;;;;;;5.06;60.82;98602.88;4943593;29;20035;-94
2024/01/16 06:43:29;;;;;;;9.18;4.45;;;;;;;5.06;60.90;98601.03;4919362;29;20474;-94
2024/01/16 06:45:55;;;;;;;6.10;4.30;;;;;;;5.13;59.53;98602.69;4930007;29;20094;-93
2024/01/16 06:55:15;;;;;;;5.38;3.35;;;;;;;5.21;58.45;98663.63;4917750;28;20050;-93
2024/01/16 06:57:42;;;;;;;7.43;3.63;;;;;;;5.16;58.05;98664.34;4927980;29;20216;-95
2024/01/16 07:00:12;;;;;;;3.38;2.53;;;;;;;4.97;58.01;98652.41;4943761;29;20035;-93
2024/01/16 07:02:39;;;;;;;4.80;3.15;;;;;;;4.96;58.61;98659.59;4929073;29;20505;-94
2024/01/16 07:05:05;;;;;;;5.53;3.80;;;;;;;5.07;58.25;98661.31;4946683;29;20023;-93
2024/01/16 07:07:31;;;;;;;4.97;3.08;;;;;;;5.40;57.10;98688.09;4930328;29;20031;-93
2024/01/16 07:09:58;;;;;;;6.47;4.03;;;;;;;5.33;56.75;98674.94;4927488;29;20512;-96
2024/01/16 07:12:24;;;;;;;6.05;3.90;;;;;;;5.46;56.56;98695.09;4943531;29;20035;-94
2024/01/16 07:14:50;;;;;;;8.55;3.75;;;;;;;5.56;56.13;98708.56;4927857;29;20038;-95
2024/01/16 07:17:16;;;;;;;5.75;3.20;;;;;;;5.59;55.27;98705.38;4927405;29;20032;-94
2024/01/16 07:19:43;;;;;;;4.85;2.85;;;;;;;5.58;55.72;98681.59;4927403;29;20034;-94
2024/01/16 07:22:08;;;;;;;4.75;2.70;;;;;;;5.65;55.29;98707.03;4927800;29;20027;-95
2024/01/16 07:24:34;;;;;;;3.55;2.50;;;;;;;5.79;54.00;98715.44;4943200;29;20442;-93
2024/01/16 07:27:00;;;;;;;7.22;3.75;;;;;;;5.91;54.71;98715.28;4928415;29;20091;-94
2024/01/16 07:29:28;;;;;;;5.85;3.22;;;;;;;5.88;53.94;98713.91;4921657;29;20042;-94
2024/01/16 07:31:59;;;;;;;4.97;2.50;;;;;;;6.20;54.16;98745.19;4956199;29;20031;-95
2024/01/16 07:34:39;;;;;;;5.68;2.38;;;;;;;6.14;52.42;98745.41;5297442;23;20070;-93
2024/01/16 07:37:08;;;;;;;2.85;2.00;;;;;;;6.14;52.16;98750.78;4925679;29;20027;-94
2024/01/16 07:39:34;;;;;;;4.97;2.20;;;;;;;6.18;52.05;98771.38;4927249;29;20042;-95
2024/01/16 07:42:03;;;;;;;3.28;2.00;;;;;;;6.01;51.96;98760.81;4928407;29;20015;-95
2024/01/16 07:44:28;;;;;;;3.10;1.92;;;;;;;6.22;52.00;98787.72;4928320;29;20035;-93
2024/01/16 07:46:57;;;;;;;2.95;1.90;;;;;;;6.38;51.07;98796.69;4926515;29;20035;-94
2024/01/16 07:49:33;;;;;;;3.78;1.92;;;;;;;6.35;50.74;98781.16;4929099;29;20023;-94
2024/01/16 07:52:04;;;;;;;4.18;1.95;;;;;;;6.39;50.32;98795.63;4925459;29;20060;-95
2024/01/16 07:54:32;;;;;;;5.03;2.20;;;;;;;6.51;51.19;98793.56;4945757;29;20035;-96
2024/01/16 07:57:38;;;;;;;4.60;2.13;;;;;;;6.40;49.67;98794.56;4930697;29;20181;-96
2024/01/16 08:17:19;;;;;;;;;;;;;;;;;;;;;
2024/01/16 08:19:58;;;;;;;4.10;2.25;;;;;;;6.23;47.63;98822.22;4970689;28;20077;-95
2024/01/16 08:22:34;;;;;;;2.72;1.52;;;;;;;6.45;47.81;98840.88;4949157;28;20022;-95
2024/01/16 08:24:59;;;;;;;2.95;1.65;;;;;;;6.45;47.99;98851.59;4913431;29;20637;-95
2024/01/16 08:27:46;;;;;;;6.75;1.65;;;;;;;6.36;47.97;98845.06;4879547;29;20036;-96
2024/01/16 08:32:55;;;;;;;4.90;2.78;;;;;;;6.25;47.80;98852.19;4956503;28;20056;-94
2024/01/16 08:35:35;;;;;;;5.82;2.25;;;;;;;6.15;48.71;98843.28;4928890;29;20035;-94
2024/01/16 08:38:12;;;;;;;5.65;3.63;;;;;;;5.97;48.82;98844.41;4903333;29;20039;-94
2024/01/16 08:41:26;;;;;;;7.22;3.22;;;;;;;5.60;48.57;98840.53;4881125;29;20519;-96
2024/01/16 08:43:54;;;;;;;5.85;2.13;;;;;;;5.83;48.36;98850.13;4909730;29;20191;-96
2024/01/16 08:49:44;;;;;;;7.40;4.50;;;;;;;5.93;48.74;98875.34;4923063;29;20054;-95
2024/01/16 08:52:12;;;;;;;5.15;2.00;;;;;;;5.96;47.58;98886.38;4874195;29;20032;-96
2024/01/16 08:54:38;;;;;;;5.20;1.90;;;;;;;5.93;47.47;98896.72;4876601;29;20044;-96
2024/01/16 08:57:06;;;;;;;4.72;1.80;;;;;;;5.88;47.93;98903.63;4874832;29;20032;-94
2024/01/16 08:59:32;;;;;;;4.65;1.50;;;;;;;5.78;47.41;98895.47;4872958;29;20039;-94
2024/01/16 09:02:00;;;;;;;4.90;1.67;;;;;;;5.75;47.65;98909.34;4883342;29;20039;-92
2024/01/16 09:04:25;;;;;;;4.93;2.35;;;;;;;5.70;47.64;98895.91;4907670;29;20036;-93
2024/01/16 09:06:52;;;;;;;8.32;2.35;;;;;;;5.83;48.54;98932.13;4910142;29;20038;-93
2024/01/16 09:09:17;;;;;;;3.67;1.95;;;;;;;5.91;48.08;98915.66;4911880;29;20038;-94
2024/01/16 09:11:48;;;;;;;4.43;1.80;;;;;;;5.86;46.60;98931.63;4910615;29;20023;-94
2024/01/16 09:14:23;;;;;;;5.88;2.03;;;;;;;5.76;47.78;98926.97;4912372;29;20031;-96
2024/01/16 09:17:01;;;;;;;;;;;;;;;;;;;;;
2024/01/16 09:19:29;;;;;;;3.03;1.67;;;;;;;5.90;47.23;98946.13;4934331;28;20118;-94
2024/01/16 09:22:02;;;;;;;8.55;2.17;;;;;;;5.77;47.97;98946.47;4913729;29;20024;-95
2024/01/16 09:24:36;;;;;;;5.47;2.00;;;;;;;5.71;46.87;98948.28;4910705;29;20036;-96
2024/01/16 09:27:06;;;;;;;6.32;3.15;;;;;;;5.80;47.49;98946.00;4924406;28;20027;-95
2024/01/16 09:29:32;;;;;;;6.72;3.25;;;;;;;5.91;46.96;98952.25;4924344;29;20368;-94
2024/01/16 09:32:08;;;;;;;5.90;3.17;;;;;;;5.88;48.39;98959.72;4929356;28;20058;-93
2024/01/16 09:34:37;;;;;;;3.33;2.03;;;;;;;5.85;45.60;98949.53;4875444;29;20055;-92
2024/01/16 09:37:03;;;;;;;14.65;7.03;;;;;;;5.93;45.39;98956.28;4875955;29;20037;-93
2024/01/16 09:39:32;;;;;;;5.85;3.50;;;;;;;5.91;46.16;98952.25;4879433;29;20036;-93
2024/01/16 09:42:01;;;;;;;4.68;2.38;;;;;;;5.87;46.28;98974.16;4874777;29;20036;-90
2024/01/16 09:44:49;;;;;;;3.67;2.05;;;;;;;5.82;45.82;98951.91;4884924;29;20099;-92
2024/01/16 09:47:15;;;;;;;2.45;1.67;;;;;;;5.85;45.64;98940.69;4900334;29;20036;-91
2024/01/16 09:49:43;;;;;;;5.40;1.80;;;;;;;6.05;45.74;98943.66;4880373;29;20052;-91
2024/01/16 09:52:09;;;;;;;3.85;1.50;;;;;;;6.25;46.32;98959.13;4883258;29;20117;-92
2024/01/16 09:59:54;;;;;;;2.88;2.08;;;;;;;6.85;44.07;98989.44;4966709;28;20051;-96
2024/01/16 10:05:36;;;;;;;3.50;2.03;;;;;;;6.96;44.47;99002.91;4967943;28;20054;-95
2024/01/16 10:35:12;;;;;;;2.78;1.85;;;;;;;6.30;44.02;98982.44;4989805;28;20043;-96
2024/01/16 10:40:31;;;;;;;4.97;2.55;;;;;;;6.66;43.06;99010.41;5165820;23;20086;-96
2024/01/16 10:50:40;;;;;;;6.10;1.70;;;;;;;6.57;43.80;99029.81;5258548;23;20068;-95
2024/01/16 10:53:07;;;;;;;4.30;2.40;;;;;;;6.54;43.68;99009.72;4948162;29;20290;-95
2024/01/16 10:55:47;;;;;;;5.70;2.60;;;;;;;6.54;42.54;99003.56;4914780;29;20035;-94
2024/01/16 10:58:33;;;;;;;;;;;;;;;;;;;;;
2024/01/16 11:01:08;;;;;;;2.08;1.55;;;;;;;6.74;40.92;99017.16;4946463;29;20223;-93
2024/01/16 11:06:13;;;;;;;4.63;2.80;;;;;;;6.72;40.40;99037.19;5290920;23;20046;-95
2024/01/16 11:08:41;;;;;;;4.05;1.90;;;;;;;6.53;41.24;99029.50;4932004;28;20121;-93
2024/01/16 11:11:07;;;;;;;3.95;2.33;;;;;;;6.42;40.80;99030.44;4931717;28;20050;-92
2024/01/16 11:13:37;;;;;;;12.13;2.67;;;;;;;6.46;42.36;99045.75;4931213;28;20042;-92
2024/01/16 11:16:08;;;;;;;5.78;2.00;;;;;;;6.22;40.84;99036.34;4949023;28;20026;-94
2024/01/16 11:18:34;;;;;;;3.75;2.25;;;;;;;6.02;41.55;99037.69;4947589;28;20046;-94
2024/01/16 11:21:16;;;;;;;4.55;2.38;;;;;;;6.00;41.87;99044.34;4931872;28;20031;-95
2024/01/16 11:23:45;;;;;;;3.55;2.28;;;;;;;6.19;41.21;99051.03;4947932;28;20118;-94
2024/01/16 11:34:54;;;;;;;5.60;3.03;;;;;;;6.03;41.89;99065.22;5541102;23;20073;-96
2024/01/16 11:57:59;;;;;;;3.05;2.22;;;;;;;6.25;43.46;99079.44;4908629;29;20040;-96
2024/01/16 12:00:57;;;;;;;;;;;;;;;;;;;;;
2024/01/16 13:17:53;;;;;;;4.63;2.90;;;;;;;5.93;45.87;99223.50;4959198;28;20031;-94
2024/01/16 13:30:27;;;;;;;4.30;2.50;;;;;;;5.60;44.72;99221.59;4819411;29;20062;-96
2024/01/16 13:37:06;;;;;;;7.85;3.17;;;;;;;5.48;44.57;99243.03;4927046;29;20035;-95
2024/01/16 13:45:59;;;;;;;10.13;3.60;;;;;;;5.49;46.42;99265.19;4935109;29;20039;-96
2024/01/16 13:56:10;;;;;;;;;;;;;;;;;;;;;
2024/01/16 13:58:49;;;;;;;6.80;3.92;;;;;;;5.68;46.89;99253.25;4946226;29;20091;-95
2024/01/16 14:37:02;;;;;;;12.60;5.28;;;;;;;5.41;46.67;99261.03;5369942;23;20062;-94
2024/01/16 14:39:31;;;;;;;8.60;5.18;;;;;;;5.59;47.13;99284.09;4952028;28;20033;-94
2024/01/16 14:42:07;;;;;;;9.60;6.40;;;;;;;5.55;47.52;99272.25;4934574;29;20031;-94
2024/01/16 14:44:37;;;;;;;9.68;5.45;;;;;;;5.63;47.37;99288.72;4955176;28;20027;-93
2024/01/16 14:47:13;;;;;;;;;;;;;;;;;;;;;
2024/01/16 14:58:39;;;;;;;7.25;4.25;;;;;;;5.46;48.63;99310.03;4758713;23;15162046;-96
2024/01/16 15:02:47;;;;;;;;;;;;;;;;;;;;;
2024/01/16 15:04:57;;;;;;;9.20;5.00;;;;;;;5.31;48.67;99330.25;4932231;28;20042;-96
2024/01/16 15:08:06;;;;;;;;;;;;;;;;;;;;;
2024/01/16 15:11:10;;;;;;;;;;;;;;;;;;;;;
2024/01/16 16:01:27;;;;;;;15.25;8.63;;;;;;;4.56;49.06;99399.22;4905729;29;20140;-95
2024/01/16 16:03:54;;;;;;;14.88;9.20;;;;;;;4.61;49.71;99423.38;4886381;29;20041;-95
2024/01/16 16:06:19;;;;;;;27.30;9.55;;;;;;;4.48;49.85;99398.75;4902413;29;20111;-92
2024/01/16 16:08:45;;;;;;;17.35;9.85;;;;;;;4.47;50.14;99413.94;4885965;29;20032;-93
2024/01/16 16:11:11;;;;;;;17.92;9.57;;;;;;;4.41;49.73;99398.84;4893571;29;20028;-93
2024/01/16 16:13:40;;;;;;;19.92;10.75;;;;;;;4.56;49.51;99427.75;4906649;29;20032;-93
2024/01/16 16:16:08;;;;;;;21.50;11.45;;;;;;;4.40;49.86;99405.22;4898594;29;20514;-93
2024/01/16 16:18:37;;;;;;;19.67;11.00;;;;;;;4.44;50.29;99420.53;4881467;29;20032;-96
2024/01/16 16:21:04;;;;;;;23.98;11.30;;;;;;;4.26;49.90;99423.25;4888841;29;20057;-93
2024/01/16 16:23:30;;;;;;;23.52;11.18;;;;;;;4.13;50.56;99412.75;4902827;29;20020;-93
2024/01/16 16:25:58;;;;;;;23.08;11.40;;;;;;;4.24;50.53;99423.47;4887675;29;20031;-93
2024/01/16 16:28:23;;;;;;;27.00;13.00;;;;;;;4.05;50.71;99409.38;4886013;29;20044;-95
2024/01/16 16:30:49;;;;;;;20.85;11.93;;;;;;;4.15;50.98;99432.00;4887172;29;20035;-93
2024/01/16 16:33:15;;;;;;;31.15;14.02;;;;;;;4.10;50.46;99443.34;4887400;29;20013;-94
2024/01/16 16:35:41;;;;;;;29.50;14.30;;;;;;;3.95;51.31;99422.41;4885889;29;20096;-93
2024/01/16 16:38:08;;;;;;;22.23;13.10;;;;;;;3.78;51.87;99430.19;4888455;29;20033;-93
2024/01/16 16:40:36;;;;;;;26.25;13.52;;;;;;;3.81;51.76;99439.59;4902694;29;20040;-94
2024/01/16 16:43:02;;;;;;;28.75;13.57;;;;;;;3.82;51.47;99441.22;4896241;29;20111;-94
2024/01/16 16:45:28;;;;;;;25.63;13.38;;;;;;;3.84;52.21;99463.94;4887177;29;20480;-94
2024/01/16 16:47:53;;;;;;;32.05;15.25;;;;;;;3.72;52.58;99457.72;4898177;29;20023;-93
2024/01/16 16:50:22;;;;;;;35.13;17.60;;;;;;;3.78;52.19;99453.38;4892576;29;20035;-93
2024/01/16 16:52:48;;;;;;;20.60;12.70;;;;;;;3.81;52.40;99460.91;4902952;29;20032;-92
2024/01/16 16:55:14;;;;;;;23.55;11.45;;;;;;;3.72;52.35;99448.94;4901752;29;20028;-95
2024/01/16 16:57:39;;;;;;;24.02;12.50;;;;;;;3.71;52.62;99448.09;4900334;29;20563;-93
2024/01/16 17:00:08;;;;;;;35.10;17.58;;;;;;;3.66;52.81;99447.94;4895093;29;20049;-94
2024/01/16 17:02:37;;;;;;;26.05;15.32;;;;;;;3.75;53.02;99465.25;4894149;29;20059;-94
2024/01/16 17:05:03;;;;;;;31.80;13.13;;;;;;;3.71;52.72;99450.75;4905123;29;20032;-93
2024/01/16 17:07:29;;;;;;;28.10;15.02;;;;;;;3.73;52.61;99455.88;4890181;29;20020;-94
2024/01/16 17:09:55;;;;;;;25.67;14.10;;;;;;;3.95;52.17;99482.88;4889223;29;20124;-94